createdAt,value
2023-01-26T00:01:38.556Z,97813.50
2023-01-26T00:04:06.107Z,97827.31
2023-01-26T00:06:33.814Z,97825.34
2023-01-26T00:09:02.018Z,97824.63
2023-01-26T00:11:30.619Z,97820.38
2023-01-26T00:14:00.503Z,97814.50
2023-01-26T00:16:28.576Z,97815.84
2023-01-26T00:18:56.271Z,97803.41
2023-01-26T00:21:25.279Z,97804.06
2023-01-26T00:23:53.650Z,97800.53
2023-01-26T00:26:24.290Z,97798.38
2023-01-26T00:28:53.327Z,97799.56
2023-01-26T00:31:26.408Z,97767.81
2023-01-26T00:33:55.859Z,97800.97
2023-01-26T00:36:23.983Z,97787.06
2023-01-26T00:38:51.533Z,97796.38
2023-01-26T00:41:37.210Z,97781.75
2023-01-26T00:44:04.919Z,97793.94
2023-01-26T00:46:32.642Z,97784.66
2023-01-26T00:49:01.235Z,97784.16
2023-01-26T00:51:29.052Z,97788.66
2023-01-26T00:53:57.255Z,97779.94
2023-01-26T00:56:28.356Z,97758.44
2023-01-26T00:58:55.983Z,97764.63
2023-01-26T01:01:23.526Z,97757.19
2023-01-26T01:03:52.513Z,97761.97
2023-01-26T01:06:20.023Z,97765.41
2023-01-26T01:08:47.634Z,97767.59
2023-01-26T01:11:15.252Z,97776.59
2023-01-26T01:13:43.122Z,97769.81
2023-01-26T01:16:14.002Z,97767.66
2023-01-26T01:18:41.850Z,97756.63
2023-01-26T01:21:15.507Z,97750.03
2023-01-26T01:23:43.861Z,97750.47
2023-01-26T01:26:13.484Z,97751.00
2023-01-26T01:28:42.363Z,97753.06
2023-01-26T01:31:15.267Z,97746.59
2023-01-26T01:33:43.421Z,97735.16
2023-01-26T01:36:14.727Z,97719.28
2023-01-26T01:38:45.651Z,97707.25
2023-01-26T01:41:14.630Z,97698.78
2023-01-26T01:43:42.579Z,97714.38
2023-01-26T01:46:34.348Z,97716.66
2023-01-26T01:49:19.839Z,97715.66
2023-01-26T01:51:56.927Z,97703.00
2023-01-26T01:54:32.782Z,97709.88
2023-01-26T01:57:05.854Z,97716.09
2023-01-26T01:59:34.414Z,97677.09
2023-01-26T02:02:01.934Z,97696.34
2023-01-26T02:04:49.589Z,97698.19
2023-01-26T02:07:33.244Z,97689.31
2023-01-26T02:10:20.757Z,97684.41
2023-01-26T02:12:53.162Z,97683.03
2023-01-26T02:15:20.673Z,97691.75
2023-01-26T02:17:48.263Z,97684.34
2023-01-26T02:20:44.257Z,97671.53
2023-01-26T02:23:38.197Z,97674.31
2023-01-26T02:26:15.678Z,97657.97
2023-01-26T02:28:45.138Z,97657.66
2023-01-26T02:31:14.334Z,97660.75
2023-01-26T02:33:43.719Z,97656.88
2023-01-26T02:36:18.707Z,97656.03
2023-01-26T02:39:22.903Z,97651.94
2023-01-26T02:42:10.786Z,97650.44
2023-01-26T02:44:40.906Z,97654.16
2023-01-26T02:47:14.477Z,97652.72
2023-01-26T02:49:51.259Z,97636.81
2023-01-26T02:52:22.898Z,97635.34
2023-01-26T02:55:19.176Z,97637.28
2023-01-26T02:57:47.465Z,97622.53
2023-01-26T03:00:37.756Z,97627.16
2023-01-26T03:03:15.679Z,97640.41
2023-01-26T03:05:43.349Z,97612.53
2023-01-26T03:08:10.883Z,97618.28
2023-01-26T03:10:41.988Z,97624.88
2023-01-26T03:13:09.652Z,97612.59
2023-01-26T03:15:55.167Z,97607.38
2023-01-26T03:18:42.547Z,97605.50
2023-01-26T03:21:34.889Z,97605.06
2023-01-26T03:24:21.599Z,97608.50
2023-01-26T03:27:07.989Z,97601.41
2023-01-26T03:29:36.420Z,97594.88
2023-01-26T03:32:04.186Z,97575.13
2023-01-26T03:34:31.992Z,97591.94
2023-01-26T03:37:00.170Z,97589.28
2023-01-26T03:39:53.012Z,97585.41
2023-01-26T03:42:39.047Z,97594.81
2023-01-26T03:45:26.485Z,97586.78
2023-01-26T03:48:12.471Z,97570.88
2023-01-26T03:50:58.210Z,97580.13
2023-01-26T03:53:44.276Z,97567.00
2023-01-26T03:56:20.275Z,97578.88
2023-01-26T03:58:51.606Z,97573.41
2023-01-26T04:01:28.115Z,97579.88
2023-01-26T04:04:17.485Z,97557.56
2023-01-26T04:07:07.271Z,97573.75
2023-01-26T04:09:37.757Z,97563.34
2023-01-26T04:12:06.823Z,97557.25
2023-01-26T04:14:57.526Z,97559.69
2023-01-26T04:17:45.003Z,97553.91
2023-01-26T04:20:32.388Z,97558.91
2023-01-26T04:23:00.100Z,97549.31
2023-01-26T04:25:28.243Z,97553.03
2023-01-26T04:27:57.712Z,97545.41
2023-01-26T04:30:25.322Z,97553.25
2023-01-26T04:32:53.073Z,97552.31
2023-01-26T04:35:20.681Z,97533.94
2023-01-26T04:37:48.875Z,97540.31
2023-01-26T04:40:17.339Z,97527.59
2023-01-26T04:42:44.856Z,97532.22
2023-01-26T04:45:12.850Z,97538.66
2023-01-26T04:47:40.583Z,97541.53
2023-01-26T04:50:09.085Z,97537.00
2023-01-26T04:52:36.816Z,97513.56
2023-01-26T04:55:04.797Z,97541.69
2023-01-26T04:57:34.336Z,97521.69
2023-01-26T05:00:05.084Z,97512.09
2023-01-26T05:02:33.242Z,97522.78
2023-01-26T05:05:00.745Z,97502.19
2023-01-26T05:07:31.197Z,97505.44
2023-01-26T05:09:59.444Z,97499.53
2023-01-26T05:12:52.811Z,97508.78
2023-01-26T05:15:20.331Z,97503.09
2023-01-26T05:18:14.826Z,97506.59
2023-01-26T05:20:57.455Z,97509.06
2023-01-26T05:23:30.761Z,97508.47
2023-01-26T05:26:21.464Z,97504.53
2023-01-26T05:28:56.848Z,97499.16
2023-01-26T05:31:24.618Z,97513.88
2023-01-26T05:33:53.384Z,97506.13
2023-01-26T05:36:23.713Z,97511.72
2023-01-26T05:38:51.646Z,97516.88
2023-01-26T05:41:23.650Z,97518.38
2023-01-26T05:44:26.118Z,97520.72
2023-01-26T05:47:02.067Z,97513.19
2023-01-26T05:49:30.233Z,97520.34
2023-01-26T05:51:58.403Z,97507.13
2023-01-26T05:54:26.179Z,97507.56
2023-01-26T05:56:55.202Z,97504.97
2023-01-26T05:59:22.971Z,97502.44
2023-01-26T06:01:50.482Z,97505.66
2023-01-26T06:04:18.067Z,97502.78
2023-01-26T06:06:57.196Z,97495.50
2023-01-26T06:09:29.933Z,97489.63
2023-01-26T06:12:00.285Z,97491.84
2023-01-26T06:14:50.880Z,97443.22
2023-01-26T06:17:18.927Z,97484.09
2023-01-26T06:19:48.903Z,97493.16
2023-01-26T06:22:17.007Z,97489.13
2023-01-26T06:24:49.185Z,97490.97
2023-01-26T06:27:18.896Z,97495.66
2023-01-26T06:29:48.928Z,97491.72
2023-01-26T06:32:16.447Z,97492.59
2023-01-26T06:34:45.775Z,97481.44
2023-01-26T06:37:14.284Z,97495.06
2023-01-26T06:39:42.074Z,97501.34
2023-01-26T06:42:09.893Z,97494.75
2023-01-26T06:44:39.132Z,97488.91
2023-01-26T06:47:07.865Z,97491.19
2023-01-26T06:49:36.347Z,97482.13
2023-01-26T06:52:19.981Z,97493.53
2023-01-26T06:54:51.391Z,97488.41
2023-01-26T06:57:37.493Z,97471.50
2023-01-26T07:00:23.713Z,97468.88
2023-01-26T07:03:13.805Z,97475.47
2023-01-26T07:05:41.366Z,97467.19
2023-01-26T07:08:09.117Z,97469.06
2023-01-26T07:10:37.220Z,97481.13
2023-01-26T07:13:07.078Z,97473.78
2023-01-26T07:15:35.037Z,97461.25
2023-01-26T07:18:02.679Z,97447.66
2023-01-26T07:20:30.452Z,97450.91
2023-01-26T07:23:00.768Z,97448.75
2023-01-26T07:25:28.865Z,97445.28
2023-01-26T07:28:00.483Z,97414.16
2023-01-26T07:30:28.101Z,97426.81
2023-01-26T07:32:55.570Z,97428.53
2023-01-26T07:35:23.051Z,97421.19
2023-01-26T07:37:50.537Z,97421.34
2023-01-26T07:40:18.386Z,97417.88
2023-01-26T07:42:46.719Z,97423.03
2023-01-26T07:45:24.262Z,97421.78
2023-01-26T07:47:53.519Z,97409.09
2023-01-26T07:50:21.864Z,97408.00
2023-01-26T07:52:49.710Z,97414.25
2023-01-26T07:55:17.261Z,97416.78
2023-01-26T07:57:44.986Z,97407.53
2023-01-26T08:00:13.183Z,97405.66
2023-01-26T08:02:40.895Z,97393.75
2023-01-26T08:05:09.373Z,97398.75
2023-01-26T08:07:36.858Z,97399.53
2023-01-26T08:10:04.694Z,97408.00
2023-01-26T08:12:32.083Z,97383.41
2023-01-26T08:14:59.565Z,97379.50
2023-01-26T08:17:30.191Z,97372.94
2023-01-26T08:19:57.743Z,97361.81
2023-01-26T08:22:25.471Z,97370.91
2023-01-26T08:24:52.987Z,97366.38
2023-01-26T08:27:20.507Z,97357.31
2023-01-26T08:29:48.173Z,97345.41
2023-01-26T08:32:15.655Z,97351.38
2023-01-26T08:34:43.158Z,97351.84
2023-01-26T08:37:10.677Z,97339.63
2023-01-26T08:39:38.232Z,97336.50
2023-01-26T08:42:05.832Z,97345.59
2023-01-26T08:44:33.324Z,97339.47
2023-01-26T08:47:00.819Z,97312.88
2023-01-26T08:49:28.353Z,97311.94
2023-01-26T08:51:55.860Z,97312.13
2023-01-26T08:54:23.713Z,97309.31
2023-01-26T08:56:51.311Z,97291.00
2023-01-26T08:59:18.878Z,97293.19
2023-01-26T09:01:46.368Z,97292.28
2023-01-26T09:04:13.896Z,97305.72
2023-01-26T09:06:41.436Z,97294.59
2023-01-26T09:09:13.406Z,97284.28
2023-01-26T09:11:41.604Z,97292.25
2023-01-26T09:14:09.083Z,97274.44
2023-01-26T09:16:36.648Z,97272.75
2023-01-26T09:19:05.433Z,97258.38
2023-01-26T09:21:32.876Z,97261.00
2023-01-26T09:24:00.558Z,97276.03
2023-01-26T09:26:29.816Z,97269.31
2023-01-26T09:28:57.391Z,97267.75
2023-01-26T09:31:25.010Z,97263.53
2023-01-26T09:33:52.788Z,97265.41
2023-01-26T09:36:20.200Z,97263.84
2023-01-26T09:38:47.844Z,97273.38
2023-01-26T09:41:24.032Z,97266.34
2023-01-26T09:43:55.535Z,97276.22
2023-01-26T09:46:27.675Z,97262.44
2023-01-26T09:49:04.013Z,97269.00
2023-01-26T09:51:39.180Z,97275.25
2023-01-26T09:54:34.526Z,97279.00
2023-01-26T09:57:10.931Z,97279.16
2023-01-26T09:59:57.554Z,97272.94
2023-01-26T10:02:59.207Z,97277.44
2023-01-26T10:05:36.164Z,97283.22
2023-01-26T10:08:12.217Z,97293.38
2023-01-26T10:10:46.699Z,97304.63
2023-01-26T10:13:16.236Z,97295.53
2023-01-26T10:15:48.071Z,97292.13
2023-01-26T10:18:22.647Z,97284.28
2023-01-26T10:20:54.782Z,97275.09
2023-01-26T10:23:34.109Z,97263.69
2023-01-26T10:26:17.424Z,97268.06
2023-01-26T10:28:47.154Z,97258.69
2023-01-26T10:31:21.554Z,97261.19
2023-01-26T10:33:55.208Z,97264.31
2023-01-26T10:36:23.521Z,97251.03
2023-01-26T10:38:52.275Z,97263.22
2023-01-26T10:41:28.794Z,97265.56
2023-01-26T10:44:09.902Z,97252.28
2023-01-26T10:46:40.296Z,97264.16
2023-01-26T10:49:11.824Z,97273.84
2023-01-26T10:51:42.335Z,97291.81
2023-01-26T10:54:19.221Z,97293.19
2023-01-26T10:56:51.768Z,97290.06
2023-01-26T10:59:31.630Z,97293.84
2023-01-26T11:02:20.745Z,97293.34
2023-01-26T11:05:10.236Z,97293.22
2023-01-26T11:07:43.359Z,97296.34
2023-01-26T11:10:22.605Z,97286.00
2023-01-26T11:12:51.771Z,97296.81
2023-01-26T11:15:25.175Z,97319.13
2023-01-26T11:18:10.083Z,97320.34
2023-01-26T11:20:43.488Z,97318.16
2023-01-26T11:23:19.830Z,97318.47
2023-01-26T11:26:28.239Z,97308.81
2023-01-26T11:29:38.788Z,97300.34
2023-01-26T11:32:24.899Z,97269.44
2023-01-26T11:35:09.605Z,97284.28
2023-01-26T11:37:44.983Z,97298.97
2023-01-26T11:40:27.926Z,97298.03
2023-01-26T11:43:18.620Z,97314.75
2023-01-26T11:45:52.136Z,97313.94
2023-01-26T11:48:51.995Z,97307.25
2023-01-26T11:51:28.459Z,97288.81
2023-01-26T11:54:18.611Z,97323.81
2023-01-26T11:56:53.747Z,97331.94
2023-01-26T11:59:57.511Z,97335.81
2023-01-26T12:02:36.080Z,97332.47
2023-01-26T12:05:14.409Z,97340.91
2023-01-26T12:07:57.478Z,97314.34
2023-01-26T12:10:31.855Z,97332.31
2023-01-26T12:13:39.501Z,97324.78
2023-01-26T12:16:21.704Z,97317.09
2023-01-26T12:19:11.086Z,97329.97
2023-01-26T12:21:44.572Z,97336.97
2023-01-26T12:24:54.302Z,97338.38
2023-01-26T12:27:30.699Z,97337.31
2023-01-26T12:30:27.997Z,97358.56
2023-01-26T12:32:55.635Z,97359.94
2023-01-26T12:35:56.515Z,97365.75
2023-01-26T12:38:43.620Z,97364.69
2023-01-26T12:41:14.272Z,97378.56
2023-01-26T12:44:01.238Z,97371.38
2023-01-26T12:46:33.593Z,97379.44
2023-01-26T12:49:33.511Z,97394.44
2023-01-26T12:52:11.863Z,97392.59
2023-01-26T12:54:43.719Z,97382.13
2023-01-26T12:57:23.903Z,97384.78
2023-01-26T12:59:51.752Z,97392.31
2023-01-26T13:02:27.493Z,97381.66
2023-01-26T13:04:58.559Z,97381.44
2023-01-26T13:07:38.026Z,97371.59
2023-01-26T13:10:15.244Z,97386.41
2023-01-26T13:12:57.088Z,97389.34
2023-01-26T13:15:28.007Z,97380.31
2023-01-26T13:18:03.932Z,97378.22
2023-01-26T13:20:40.750Z,97382.81
2023-01-26T13:23:45.519Z,97374.78
2023-01-26T13:26:23.308Z,97381.22
2023-01-26T13:28:51.211Z,97384.56
2023-01-26T13:31:33.633Z,97383.69
2023-01-26T13:34:06.635Z,97385.88
2023-01-26T13:36:38.265Z,97384.16
2023-01-26T13:39:25.614Z,97396.25
2023-01-26T13:41:53.622Z,97392.47
2023-01-26T13:44:26.676Z,97390.78
2023-01-26T13:47:06.242Z,97400.97
2023-01-26T13:49:41.918Z,97405.19
2023-01-26T13:52:20.149Z,97392.47
2023-01-26T13:54:49.510Z,97399.00
2023-01-26T13:57:27.091Z,97406.06
2023-01-26T13:59:59.371Z,97399.75
2023-01-26T14:02:32.055Z,97402.50
2023-01-26T14:05:03.569Z,97404.28
2023-01-26T14:07:44.834Z,97392.47
2023-01-26T14:10:20.424Z,97403.25
2023-01-26T14:12:52.173Z,97414.13
2023-01-26T14:15:30.116Z,97414.44
2023-01-26T14:18:09.275Z,97412.22
2023-01-26T14:20:40.025Z,97412.66
2023-01-26T14:23:22.221Z,97420.97
2023-01-26T14:26:25.082Z,97418.56
2023-01-26T14:28:52.818Z,97413.97
2023-01-26T14:31:23.785Z,97411.00
2023-01-26T14:33:57.470Z,97401.78
2023-01-26T14:36:33.382Z,97418.00
2023-01-26T14:39:01.434Z,97411.31
2023-01-26T14:41:32.435Z,97410.06
2023-01-26T14:44:12.733Z,97414.03
2023-01-26T14:47:28.720Z,97409.88
2023-01-26T14:50:27.869Z,97409.38
2023-01-26T14:52:55.974Z,97412.09
2023-01-26T14:55:28.399Z,97401.19
2023-01-26T14:58:01.427Z,97418.97
2023-01-26T15:00:37.481Z,97417.72
2023-01-26T15:03:12.321Z,97402.81
2023-01-26T15:05:43.513Z,97405.72
2023-01-26T15:08:16.955Z,97409.44
2023-01-26T15:11:19.076Z,97413.16
2023-01-26T15:13:49.512Z,97417.63
2023-01-26T15:16:19.939Z,97426.84
2023-01-26T15:18:59.599Z,97442.53
2023-01-26T15:21:40.922Z,97427.97
2023-01-26T15:24:15.995Z,97433.63
2023-01-26T15:26:44.477Z,97407.41
2023-01-26T15:29:25.891Z,97426.59
2023-01-26T15:31:56.393Z,97437.28
2023-01-26T15:34:42.438Z,97427.91
2023-01-26T15:37:31.942Z,97427.72
2023-01-26T15:39:59.872Z,97431.28
2023-01-26T15:42:31.337Z,97422.47
2023-01-26T15:44:58.905Z,97425.72
2023-01-26T15:47:29.542Z,97434.16
2023-01-26T15:49:57.484Z,97425.00
2023-01-26T15:52:30.660Z,97423.31
2023-01-26T15:54:58.237Z,97431.06
2023-01-26T15:57:25.957Z,97426.94
2023-01-26T15:59:56.549Z,97431.88
2023-01-26T16:02:24.200Z,97428.78
2023-01-26T16:04:51.751Z,97424.00
2023-01-26T16:07:22.039Z,97421.94
2023-01-26T16:09:51.293Z,97416.31
2023-01-26T16:12:36.994Z,97407.47
2023-01-26T16:15:23.411Z,97411.50
2023-01-26T16:17:51.064Z,97410.66
2023-01-26T16:20:19.389Z,97409.69
2023-01-26T16:22:46.975Z,97405.66
2023-01-26T16:25:29.986Z,97413.25
2023-01-26T16:27:59.415Z,97414.66
2023-01-26T16:30:28.498Z,97427.25
2023-01-26T16:32:56.096Z,97413.44
2023-01-26T16:35:24.162Z,97425.72
2023-01-26T16:37:51.774Z,97437.97
2023-01-26T16:40:19.773Z,97437.19
2023-01-26T16:42:50.326Z,97441.72
2023-01-26T16:45:23.835Z,97437.91
2023-01-26T16:47:55.153Z,97450.34
2023-01-26T16:50:24.234Z,97440.59
2023-01-26T16:52:52.864Z,97433.50
2023-01-26T16:55:20.544Z,97433.19
2023-01-26T16:57:50.179Z,97433.88
2023-01-26T17:00:21.378Z,97438.97
2023-01-26T17:02:52.150Z,97437.09
2023-01-26T17:05:22.083Z,97440.44
2023-01-26T17:07:51.318Z,97438.59
2023-01-26T17:10:22.717Z,97429.34
2023-01-26T17:12:50.501Z,97422.47
2023-01-26T17:15:18.101Z,97428.72
2023-01-26T17:17:46.068Z,97421.28
2023-01-26T17:20:19.122Z,97412.16
2023-01-26T17:22:47.466Z,97425.19
2023-01-26T17:25:17.203Z,97416.75
2023-01-26T17:27:46.662Z,97430.88
2023-01-26T17:30:14.484Z,97427.59
2023-01-26T17:32:42.797Z,97410.84
2023-01-26T17:35:10.751Z,97412.28
2023-01-26T17:37:39.786Z,97421.06
2023-01-26T17:40:10.166Z,97419.59
2023-01-26T17:42:37.792Z,97410.16
2023-01-26T17:45:06.517Z,97399.38
2023-01-26T17:47:34.527Z,97416.13
2023-01-26T17:50:02.302Z,97413.34
2023-01-26T17:52:31.724Z,97410.81
2023-01-26T17:54:59.366Z,97422.22
2023-01-26T17:57:26.963Z,97427.91
2023-01-26T17:59:54.531Z,97424.75
2023-01-26T18:02:22.058Z,97426.28
2023-01-26T18:04:49.892Z,97431.47
2023-01-26T18:07:17.361Z,97429.78
2023-01-26T18:09:44.943Z,97425.72
2023-01-26T18:12:12.564Z,97434.97
2023-01-26T18:14:39.972Z,97424.28
2023-01-26T18:17:07.539Z,97433.41
2023-01-26T18:19:34.971Z,97440.44
2023-01-26T18:22:02.495Z,97446.09
2023-01-26T18:24:30.753Z,97444.06
2023-01-26T18:26:58.203Z,97446.09
2023-01-26T18:29:25.891Z,97443.78
2023-01-26T18:31:53.796Z,97442.06
2023-01-26T18:34:21.502Z,97450.50
2023-01-26T18:36:49.065Z,97452.09
2023-01-26T18:39:17.674Z,97431.09
2023-01-26T18:41:45.213Z,97464.59
2023-01-26T18:44:12.800Z,97462.91
2023-01-26T18:46:40.346Z,97459.34
2023-01-26T18:49:07.929Z,97457.56
2023-01-26T18:51:36.666Z,97459.28
2023-01-26T18:54:06.054Z,97462.59
2023-01-26T18:56:34.006Z,97448.41
2023-01-26T18:59:01.689Z,97452.69
2023-01-26T19:01:29.309Z,97450.03
2023-01-26T19:03:58.006Z,97458.34
2023-01-26T19:06:26.574Z,97460.59
2023-01-26T19:09:01.069Z,97471.47
2023-01-26T19:11:32.363Z,97450.56
2023-01-26T19:14:00.857Z,97450.41
2023-01-26T19:16:29.214Z,97453.81
2023-01-26T19:18:56.971Z,97421.63
2023-01-26T19:21:25.524Z,97448.06
2023-01-26T19:23:55.140Z,97441.22
2023-01-26T19:26:25.966Z,97449.53
2023-01-26T19:28:54.470Z,97439.94
2023-01-26T19:31:22.971Z,97455.50
2023-01-26T19:33:55.553Z,97447.69
2023-01-26T19:36:23.921Z,97469.69
2023-01-26T19:38:52.164Z,97463.81
2023-01-26T19:41:20.957Z,97458.66
2023-01-26T19:43:48.657Z,97476.13
2023-01-26T19:46:17.392Z,97464.19
2023-01-26T19:48:45.080Z,97462.41
2023-01-26T19:51:18.698Z,97464.13
2023-01-26T19:53:48.356Z,97460.69
2023-01-26T19:56:28.400Z,97468.97
2023-01-26T19:58:58.204Z,97464.13
2023-01-26T20:01:28.025Z,97455.16
2023-01-26T20:03:59.280Z,97453.22
2023-01-26T20:06:29.886Z,97455.09
2023-01-26T20:08:57.928Z,97449.13
2023-01-26T20:11:29.096Z,97472.81
2023-01-26T20:13:58.216Z,97475.06
2023-01-26T20:16:28.399Z,97473.97
2023-01-26T20:18:59.526Z,97476.38
2023-01-26T20:21:29.073Z,97480.41
2023-01-26T20:23:56.692Z,97476.44
2023-01-26T20:26:26.200Z,97479.94
2023-01-26T20:28:57.825Z,97489.09
2023-01-26T20:31:26.890Z,97482.19
2023-01-26T20:33:55.121Z,97488.16
2023-01-26T20:36:28.119Z,97497.34
2023-01-26T20:38:55.968Z,97488.94
2023-01-26T20:41:29.352Z,97497.56
2023-01-26T20:44:01.120Z,97497.34
2023-01-26T20:46:39.002Z,97502.09
2023-01-26T20:49:08.934Z,97494.19
2023-01-26T20:51:38.461Z,97493.88
2023-01-26T20:54:07.149Z,97499.84
2023-01-26T20:56:35.816Z,97489.34
2023-01-26T20:59:04.738Z,97488.94
2023-01-26T21:01:34.151Z,97509.84
2023-01-26T21:04:02.492Z,97491.81
2023-01-26T21:06:30.821Z,97500.31
2023-01-26T21:08:59.944Z,97500.31
2023-01-26T21:11:30.940Z,97500.44
2023-01-26T21:14:01.409Z,97505.25
2023-01-26T21:16:30.632Z,97490.63
2023-01-26T21:18:58.302Z,97493.06
2023-01-26T21:21:25.925Z,97501.56
2023-01-26T21:23:53.491Z,97498.63
2023-01-26T21:26:23.911Z,97514.22
2023-01-26T21:28:53.608Z,97519.94
2023-01-26T21:31:23.119Z,97506.88
2023-01-26T21:33:51.022Z,97522.69
2023-01-26T21:36:21.419Z,97527.09
2023-01-26T21:38:51.241Z,97518.53
2023-01-26T21:41:43.094Z,97513.81
2023-01-26T21:44:13.387Z,97520.81
2023-01-26T21:46:41.338Z,97524.00
2023-01-26T21:49:10.143Z,97521.53
2023-01-26T21:51:55.987Z,97523.88
2023-01-26T21:54:23.631Z,97510.84
2023-01-26T21:56:51.202Z,97519.41
2023-01-26T21:59:19.719Z,97507.88
2023-01-26T22:01:52.971Z,97515.75
2023-01-26T22:04:26.473Z,97524.69
2023-01-26T22:06:55.868Z,97524.19
2023-01-26T22:09:24.536Z,97526.53
2023-01-26T22:11:53.104Z,97527.13
2023-01-26T22:14:23.207Z,97532.38
2023-01-26T22:16:50.808Z,97537.84
2023-01-26T22:19:18.720Z,97544.44
2023-01-26T22:21:46.201Z,97539.53
2023-01-26T22:24:14.941Z,97547.88
2023-01-26T22:26:42.615Z,97552.50
2023-01-26T22:29:12.937Z,97556.09
2023-01-26T22:31:40.528Z,97553.44
2023-01-26T22:34:09.313Z,97548.56
2023-01-26T22:36:36.854Z,97543.53
2023-01-26T22:39:04.591Z,97541.84
2023-01-26T22:41:32.359Z,97518.53
2023-01-26T22:44:01.089Z,97510.81
2023-01-26T22:46:30.596Z,97519.25
2023-01-26T22:48:59.392Z,97524.84
2023-01-26T22:51:31.749Z,97536.31
2023-01-26T22:54:00.191Z,97496.97
2023-01-26T22:56:28.390Z,97538.06
2023-01-26T22:59:00.124Z,97537.16
2023-01-26T23:01:33.368Z,97539.66
2023-01-26T23:04:02.098Z,97532.97
2023-01-26T23:06:29.942Z,97521.78
2023-01-26T23:08:58.622Z,97533.97
2023-01-26T23:11:28.552Z,97517.75
2023-01-26T23:13:58.290Z,97512.84
2023-01-26T23:16:26.747Z,97518.16
2023-01-26T23:18:56.319Z,97522.09
2023-01-26T23:21:25.230Z,97521.31
2023-01-26T23:23:52.838Z,97516.81
2023-01-26T23:26:21.127Z,97520.25
2023-01-26T23:28:48.958Z,97513.09
2023-01-26T23:31:18.351Z,97519.69
2023-01-26T23:33:46.374Z,97529.47
2023-01-26T23:36:15.190Z,97517.50
2023-01-26T23:38:42.835Z,97515.31
2023-01-26T23:41:10.546Z,97515.03
2023-01-26T23:43:38.763Z,97527.41
2023-01-26T23:46:07.999Z,97523.38
2023-01-26T23:48:36.067Z,97532.81
2023-01-26T23:51:06.910Z,97531.44
2023-01-26T23:53:34.655Z,97538.63
2023-01-26T23:56:08.543Z,97534.34
2023-01-26T23:58:36.761Z,97550.22
